createdAt,value
2017-08-09T00:00:30.403Z,16.47
2017-08-09T00:02:59.507Z,16.48
2017-08-09T00:05:28.619Z,16.52
2017-08-09T00:07:57.692Z,16.53
2017-08-09T00:10:26.735Z,16.60
2017-08-09T00:12:55.813Z,16.62
2017-08-09T00:15:24.869Z,16.66
2017-08-09T00:17:53.945Z,16.65
2017-08-09T00:20:23.005Z,16.71
2017-08-09T00:22:52.079Z,16.71
2017-08-09T00:25:21.155Z,16.74
2017-08-09T00:27:50.224Z,16.73
2017-08-09T00:30:19.684Z,16.75
2017-08-09T00:32:48.730Z,16.75
2017-08-09T00:35:18.565Z,16.79
2017-08-09T00:37:47.927Z,16.81
2017-08-09T00:40:17.207Z,16.86
2017-08-09T00:42:46.288Z,16.84
2017-08-09T00:45:15.772Z,16.89
2017-08-09T00:47:44.863Z,16.95
2017-08-09T00:50:13.976Z,17.02
2017-08-09T00:52:43.053Z,17.07
2017-08-09T00:55:12.156Z,17.08
2017-08-09T00:57:41.473Z,17.09
2017-08-09T01:00:10.539Z,17.08
2017-08-09T01:02:40.574Z,17.06
2017-08-09T01:05:09.934Z,17.08
2017-08-09T01:07:38.998Z,17.12
2017-08-09T01:10:08.055Z,17.13
2017-08-09T01:12:37.121Z,17.10
2017-08-09T01:15:07.007Z,17.09
2017-08-09T01:17:36.133Z,17.11
2017-08-09T01:20:05.167Z,17.13
2017-08-09T01:22:34.247Z,17.13
2017-08-09T01:25:03.378Z,17.12
2017-08-09T01:27:32.442Z,17.12
2017-08-09T01:30:01.497Z,17.15
2017-08-09T01:32:31.344Z,17.13
2017-08-09T01:35:00.415Z,17.12
2017-08-09T01:37:30.247Z,17.07
2017-08-09T01:39:59.340Z,17.05
2017-08-09T01:42:28.406Z,17.03
2017-08-09T01:44:58.244Z,17.06
2017-08-09T01:47:27.328Z,17.08
2017-08-09T01:49:56.377Z,17.12
2017-08-09T01:52:25.516Z,17.14
2017-08-09T01:54:55.332Z,17.16
2017-08-09T01:57:24.379Z,17.14
2017-08-09T01:59:53.486Z,17.14
2017-08-09T02:02:22.512Z,17.13
2017-08-09T02:04:52.340Z,17.14
2017-08-09T02:07:21.423Z,17.14
2017-08-09T02:09:51.272Z,17.09
2017-08-09T02:12:21.077Z,17.07
2017-08-09T02:14:50.150Z,17.04
2017-08-09T02:17:19.503Z,16.99
2017-08-09T02:19:48.563Z,16.95
2017-08-09T02:22:17.628Z,16.93
2017-08-09T02:24:47.460Z,16.91
2017-08-09T02:27:16.533Z,16.88
2017-08-09T02:29:46.375Z,16.88
2017-08-09T02:32:15.484Z,16.90
2017-08-09T02:34:44.540Z,16.94
2017-08-09T02:37:14.497Z,16.91
2017-08-09T02:39:43.553Z,16.91
2017-08-09T02:42:13.408Z,16.93
2017-08-09T02:44:42.436Z,16.93
2017-08-09T02:47:12.839Z,16.97
2017-08-09T02:49:42.663Z,16.99
2017-08-09T02:52:11.860Z,17.03
2017-08-09T02:54:40.913Z,17.06
2017-08-09T02:57:09.970Z,17.05
2017-08-09T02:59:39.276Z,17.06
2017-08-09T03:02:08.384Z,17.02
2017-08-09T03:04:37.891Z,17.03
2017-08-09T03:07:07.740Z,16.98
2017-08-09T03:09:36.791Z,17.00
2017-08-09T03:12:06.646Z,17.01
2017-08-09T03:14:35.742Z,17.03
2017-08-09T03:17:05.107Z,17.03
2017-08-09T03:19:34.139Z,17.01
2017-08-09T03:22:03.184Z,17.02
2017-08-09T03:24:33.007Z,17.03
2017-08-09T03:27:02.063Z,17.01
2017-08-09T03:29:31.116Z,17.04
2017-08-09T03:32:00.903Z,17.02
2017-08-09T03:34:30.754Z,17.06
2017-08-09T03:36:59.809Z,17.04
2017-08-09T03:39:29.624Z,17.01
2017-08-09T03:41:59.474Z,17.00
2017-08-09T03:44:28.520Z,16.97
2017-08-09T03:46:57.599Z,16.94
2017-08-09T03:49:26.980Z,16.90
2017-08-09T03:51:56.023Z,16.92
2017-08-09T03:54:25.072Z,16.93
2017-08-09T03:56:54.118Z,16.94
2017-08-09T03:59:23.175Z,16.94
2017-08-09T04:01:52.251Z,16.95
2017-08-09T04:04:21.313Z,16.91
2017-08-09T04:06:50.375Z,16.91
2017-08-09T04:09:20.247Z,16.94
2017-08-09T04:11:49.323Z,16.98
2017-08-09T04:14:18.395Z,17.00
2017-08-09T04:16:47.447Z,17.01
2017-08-09T04:19:16.497Z,17.06
2017-08-09T04:21:46.335Z,17.09
2017-08-09T04:24:16.235Z,17.10
2017-08-09T04:26:45.319Z,17.13
2017-08-09T04:29:14.393Z,17.13
2017-08-09T04:31:43.473Z,17.10
2017-08-09T04:34:12.855Z,17.08
2017-08-09T04:36:41.985Z,17.08
2017-08-09T04:39:11.050Z,17.09
2017-08-09T04:41:40.112Z,17.14
2017-08-09T04:44:09.213Z,17.14
2017-08-09T04:46:38.267Z,17.19
2017-08-09T04:49:07.347Z,17.19
2017-08-09T04:51:36.437Z,17.15
2017-08-09T04:54:05.764Z,17.16
2017-08-09T04:56:34.848Z,17.17
2017-08-09T04:59:03.931Z,17.25
2017-08-09T05:01:32.983Z,17.25
2017-08-09T05:04:02.074Z,17.22
2017-08-09T05:06:31.128Z,17.23
2017-08-09T05:09:00.273Z,17.22
2017-08-09T05:11:29.572Z,17.21
2017-08-09T05:13:58.653Z,17.24
2017-08-09T05:16:27.692Z,17.29
2017-08-09T05:18:56.741Z,17.35
2017-08-09T05:21:25.816Z,17.40
2017-08-09T05:23:54.875Z,17.45
2017-08-09T05:26:23.916Z,17.47
2017-08-09T05:28:52.980Z,17.51
2017-08-09T05:31:22.055Z,17.52
2017-08-09T05:33:51.094Z,17.57
2017-08-09T05:36:20.167Z,17.61
2017-08-09T05:38:49.233Z,17.59
2017-08-09T05:41:18.356Z,17.57
2017-08-09T05:43:47.463Z,17.55
2017-08-09T05:46:16.551Z,17.51
2017-08-09T05:48:45.637Z,17.55
2017-08-09T05:51:14.724Z,17.53
2017-08-09T05:53:43.832Z,17.54
2017-08-09T05:56:13.273Z,17.57
2017-08-09T05:58:42.321Z,17.54
2017-08-09T06:01:11.398Z,17.52
2017-08-09T06:03:40.467Z,17.51
2017-08-09T06:06:09.526Z,17.48
2017-08-09T06:08:38.607Z,17.48
2017-08-09T06:11:07.651Z,17.42
2017-08-09T06:13:36.723Z,17.43
2017-08-09T06:16:05.808Z,17.40
2017-08-09T06:18:34.859Z,17.28
2017-08-09T06:21:03.970Z,17.28
2017-08-09T06:23:33.003Z,17.27
2017-08-09T06:26:02.084Z,17.25
2017-08-09T06:28:31.144Z,17.25
2017-08-09T06:31:00.211Z,17.23
2017-08-09T06:33:29.288Z,17.25
2017-08-09T06:35:58.357Z,17.21
2017-08-09T06:38:27.439Z,17.23
2017-08-09T06:40:56.475Z,17.21
2017-08-09T06:43:25.532Z,17.17
2017-08-09T06:45:54.611Z,17.14
2017-08-09T06:48:23.666Z,17.14
2017-08-09T06:50:52.743Z,17.13
2017-08-09T06:53:21.785Z,17.14
2017-08-09T06:55:50.850Z,17.15
2017-08-09T06:58:19.915Z,17.20
2017-08-09T07:00:48.975Z,17.22
2017-08-09T07:03:18.059Z,17.29
2017-08-09T07:05:47.111Z,17.28
2017-08-09T07:08:16.217Z,17.22
2017-08-09T07:10:45.295Z,17.23
2017-08-09T07:13:14.347Z,17.29
2017-08-09T07:15:43.414Z,17.35
2017-08-09T07:18:12.524Z,17.39
2017-08-09T07:20:41.555Z,17.42
2017-08-09T07:23:10.644Z,17.50
2017-08-09T07:25:39.697Z,17.60
2017-08-09T07:28:08.743Z,17.76
2017-08-09T07:30:37.802Z,17.96
2017-08-09T07:33:06.867Z,18.13
2017-08-09T07:35:35.917Z,18.29
2017-08-09T07:38:05.025Z,18.55
2017-08-09T07:40:34.038Z,18.80
2017-08-09T07:43:03.192Z,19.03
2017-08-09T07:45:32.272Z,19.13
2017-08-09T07:48:01.305Z,19.12
2017-08-09T07:50:30.372Z,19.07
2017-08-09T07:52:59.436Z,19.12
2017-08-09T07:55:28.501Z,19.15
2017-08-09T07:57:57.541Z,19.09
2017-08-09T08:00:26.608Z,19.05
2017-08-09T08:02:55.909Z,19.07
2017-08-09T08:05:24.973Z,19.03
2017-08-09T08:07:54.053Z,19.09
2017-08-09T08:10:23.173Z,19.15
2017-08-09T08:12:52.197Z,19.11
2017-08-09T08:15:21.250Z,19.16
2017-08-09T08:17:50.332Z,19.34
2017-08-09T08:20:19.369Z,19.45
2017-08-09T08:22:48.457Z,19.52
2017-08-09T08:25:17.502Z,19.55
2017-08-09T08:27:46.571Z,19.61
2017-08-09T08:30:15.634Z,19.72
2017-08-09T08:32:44.677Z,19.80
2017-08-09T08:35:13.750Z,19.85
2017-08-09T08:37:43.017Z,19.95
2017-08-09T08:40:12.136Z,20.08
2017-08-09T08:42:41.195Z,20.23
2017-08-09T08:45:10.508Z,20.42
2017-08-09T08:47:39.548Z,20.60
2017-08-09T08:50:08.667Z,20.73
2017-08-09T08:52:37.757Z,20.89
2017-08-09T08:55:06.798Z,20.99
2017-08-09T08:57:35.880Z,21.10
2017-08-09T09:00:04.960Z,21.31
2017-08-09T09:02:34.020Z,21.47
2017-08-09T09:05:03.087Z,21.48
2017-08-09T09:07:32.181Z,21.45
2017-08-09T09:10:01.223Z,21.55
2017-08-09T09:12:30.312Z,21.66
2017-08-09T09:14:59.361Z,21.75
2017-08-09T09:17:28.419Z,21.87
2017-08-09T09:19:57.511Z,21.88
2017-08-09T09:22:26.585Z,21.93
2017-08-09T09:24:56.511Z,22.06
2017-08-09T09:27:25.584Z,22.11
2017-08-09T09:29:54.654Z,22.17
2017-08-09T09:32:23.707Z,22.23
2017-08-09T09:34:52.766Z,22.36
2017-08-09T09:37:22.018Z,22.39
2017-08-09T09:39:51.076Z,22.34
2017-08-09T09:42:20.125Z,22.19
2017-08-09T09:44:49.198Z,22.19
2017-08-09T09:47:18.254Z,22.27
2017-08-09T09:49:47.360Z,22.28
2017-08-09T09:52:16.546Z,22.27
2017-08-09T09:54:45.592Z,22.28
2017-08-09T09:57:14.653Z,22.30
2017-08-09T09:59:43.732Z,22.29
2017-08-09T10:02:12.820Z,22.19
2017-08-09T10:04:41.836Z,22.22
2017-08-09T10:07:10.909Z,22.21
2017-08-09T10:09:39.951Z,22.31
2017-08-09T10:12:09.023Z,22.33
2017-08-09T10:14:38.091Z,22.38
2017-08-09T10:17:07.158Z,22.33
2017-08-09T10:19:36.243Z,22.37
2017-08-09T10:22:05.307Z,22.36
2017-08-09T10:24:34.376Z,22.29
2017-08-09T10:27:03.458Z,22.34
2017-08-09T10:29:32.504Z,22.34
2017-08-09T10:32:01.571Z,22.36
2017-08-09T10:34:30.606Z,22.56
2017-08-09T10:36:59.658Z,22.64
2017-08-09T10:39:28.717Z,22.71
2017-08-09T10:41:57.772Z,22.95
2017-08-09T10:44:26.828Z,23.15
2017-08-09T10:46:55.945Z,23.13
2017-08-09T10:49:24.971Z,23.08
2017-08-09T10:51:54.030Z,22.97
2017-08-09T10:54:23.092Z,22.74
2017-08-09T10:56:52.175Z,22.42
2017-08-09T10:59:21.244Z,22.43
2017-08-09T11:01:50.304Z,22.52
2017-08-09T11:04:19.348Z,22.59
2017-08-09T11:06:48.384Z,22.76
2017-08-09T11:09:17.470Z,23.02
2017-08-09T11:11:46.539Z,23.16
2017-08-09T11:14:15.708Z,23.23
2017-08-09T11:16:44.764Z,23.30
2017-08-09T11:19:13.853Z,23.12
2017-08-09T11:21:42.884Z,23.10
2017-08-09T11:24:11.964Z,23.02
2017-08-09T11:26:41.020Z,23.09
2017-08-09T11:29:10.075Z,23.13
2017-08-09T11:31:39.129Z,23.14
2017-08-09T11:34:08.264Z,23.25
2017-08-09T11:36:37.324Z,23.33
2017-08-09T11:39:06.417Z,23.22
2017-08-09T11:41:35.481Z,23.10
2017-08-09T11:44:04.544Z,23.10
2017-08-09T11:46:33.619Z,23.20
2017-08-09T11:49:02.686Z,23.36
2017-08-09T11:51:31.767Z,23.42
2017-08-09T11:54:00.829Z,23.38
2017-08-09T11:56:29.861Z,23.32
2017-08-09T11:58:58.944Z,23.40
2017-08-09T12:01:28.043Z,23.42
2017-08-09T12:03:57.087Z,23.41
2017-08-09T12:06:26.144Z,23.28
2017-08-09T12:08:55.185Z,23.16
2017-08-09T12:11:24.255Z,23.08
2017-08-09T12:13:53.352Z,23.07
2017-08-09T12:16:22.409Z,23.07
2017-08-09T12:18:51.554Z,23.02
2017-08-09T12:21:20.610Z,23.01
2017-08-09T12:23:49.656Z,23.11
2017-08-09T12:26:18.807Z,23.16
2017-08-09T12:28:47.888Z,23.22
2017-08-09T12:31:16.957Z,23.20
2017-08-09T12:33:46.019Z,23.24
2017-08-09T12:36:17.342Z,23.27
2017-08-09T12:38:46.375Z,23.18
2017-08-09T12:41:15.453Z,23.14
2017-08-09T12:43:44.499Z,23.19
2017-08-09T12:46:13.564Z,23.28
2017-08-09T12:48:42.635Z,23.42
2017-08-09T12:51:11.865Z,23.65
2017-08-09T12:53:40.932Z,23.60
2017-08-09T12:56:10.733Z,23.44
2017-08-09T12:58:39.800Z,23.35
2017-08-09T13:01:08.861Z,23.41
2017-08-09T13:03:37.956Z,23.51
2017-08-09T13:06:06.995Z,23.63
2017-08-09T13:08:36.052Z,23.52
2017-08-09T13:11:05.096Z,23.44
2017-08-09T13:13:34.163Z,23.28
2017-08-09T13:16:03.256Z,23.24
2017-08-09T13:18:32.314Z,23.27
2017-08-09T13:21:01.361Z,23.35
2017-08-09T13:23:30.403Z,23.37
2017-08-09T13:25:59.497Z,23.39
2017-08-09T13:28:28.576Z,23.28
2017-08-09T13:30:57.661Z,23.26
2017-08-09T13:33:27.533Z,23.29
2017-08-09T13:35:56.664Z,23.23
2017-08-09T13:38:25.724Z,23.23
2017-08-09T13:40:54.795Z,23.26
2017-08-09T13:43:23.864Z,23.35
2017-08-09T13:45:52.974Z,23.45
2017-08-09T13:48:22.089Z,23.53
2017-08-09T13:50:51.142Z,23.63
2017-08-09T13:53:20.218Z,23.68
2017-08-09T13:55:49.730Z,23.73
2017-08-09T13:58:18.775Z,23.58
2017-08-09T14:00:47.886Z,23.65
2017-08-09T14:03:16.935Z,23.74
2017-08-09T14:05:46.774Z,23.80
2017-08-09T14:08:15.842Z,23.90
2017-08-09T14:10:45.659Z,23.97
2017-08-09T14:13:15.533Z,24.10
2017-08-09T14:15:44.575Z,24.27
2017-08-09T14:18:14.427Z,24.36
2017-08-09T14:20:44.423Z,24.25
2017-08-09T14:23:13.797Z,24.11
2017-08-09T14:25:43.638Z,23.93
2017-08-09T14:28:13.218Z,23.88
2017-08-09T14:30:43.032Z,23.92
2017-08-09T14:33:12.911Z,23.93
2017-08-09T14:35:41.927Z,23.91
2017-08-09T14:38:11.772Z,23.94
2017-08-09T14:40:41.596Z,23.89
2017-08-09T14:43:10.919Z,23.85
2017-08-09T14:45:40.177Z,23.89
2017-08-09T14:48:09.264Z,23.97
2017-08-09T14:50:39.074Z,24.00
2017-08-09T14:53:08.922Z,24.02
2017-08-09T14:55:37.975Z,24.08
2017-08-09T14:58:07.831Z,24.12
2017-08-09T15:00:36.872Z,24.15
2017-08-09T15:03:05.944Z,24.11
2017-08-09T15:05:35.033Z,24.07
2017-08-09T15:08:04.084Z,24.06
2017-08-09T15:10:33.148Z,24.10
2017-08-09T15:13:02.247Z,24.09
2017-08-09T15:15:31.334Z,24.07
2017-08-09T15:18:00.508Z,24.03
2017-08-09T15:20:30.153Z,24.07
2017-08-09T15:22:59.992Z,24.12
2017-08-09T15:25:29.072Z,24.08
2017-08-09T15:27:58.119Z,24.07
2017-08-09T15:30:27.167Z,24.22
2017-08-09T15:32:56.248Z,24.30
2017-08-09T15:35:26.353Z,24.34
2017-08-09T15:37:55.418Z,24.42
2017-08-09T15:40:24.479Z,24.35
2017-08-09T15:42:54.371Z,24.24
2017-08-09T15:45:24.188Z,24.20
2017-08-09T15:47:54.023Z,24.20
2017-08-09T15:50:23.537Z,24.05
2017-08-09T15:52:54.512Z,23.91
2017-08-09T15:55:23.553Z,23.86
2017-08-09T15:57:53.371Z,23.91
2017-08-09T16:00:22.435Z,24.03
2017-08-09T16:02:51.508Z,24.00
2017-08-09T16:05:20.564Z,24.00
2017-08-09T16:07:50.380Z,23.84
2017-08-09T16:10:19.931Z,23.69
2017-08-09T16:12:48.978Z,23.71
2017-08-09T16:15:18.070Z,23.76
2017-08-09T16:17:47.143Z,23.92
2017-08-09T16:20:16.968Z,23.99
2017-08-09T16:22:46.871Z,23.95
2017-08-09T16:25:15.935Z,24.04
2017-08-09T16:27:45.006Z,23.88
2017-08-09T16:30:14.071Z,23.88
2017-08-09T16:32:43.918Z,23.89
2017-08-09T16:35:12.980Z,23.79
2017-08-09T16:37:42.080Z,23.91
2017-08-09T16:40:11.129Z,24.01
2017-08-09T16:42:40.206Z,23.90
2017-08-09T16:45:09.715Z,23.90
2017-08-09T16:47:38.792Z,23.82
2017-08-09T16:50:07.863Z,23.69
2017-08-09T16:52:37.678Z,23.59
2017-08-09T16:55:06.914Z,23.45
2017-08-09T16:57:35.972Z,23.35
2017-08-09T17:00:05.061Z,23.34
2017-08-09T17:02:34.888Z,23.29
2017-08-09T17:05:03.974Z,23.22
2017-08-09T17:07:33.029Z,23.11
2017-08-09T17:10:02.090Z,23.02
2017-08-09T17:12:31.179Z,23.09
2017-08-09T17:15:00.237Z,23.20
2017-08-09T17:17:30.168Z,23.29
2017-08-09T17:20:00.018Z,23.27
2017-08-09T17:22:29.062Z,23.28
2017-08-09T17:24:58.917Z,23.32
2017-08-09T17:27:27.974Z,23.25
2017-08-09T17:29:57.824Z,23.22
2017-08-09T17:32:26.901Z,23.20
2017-08-09T17:34:55.944Z,23.22
2017-08-09T17:37:25.016Z,23.13
2017-08-09T17:39:54.078Z,23.06
2017-08-09T17:42:23.151Z,22.96
2017-08-09T17:44:52.984Z,22.93
2017-08-09T17:47:22.040Z,22.94
2017-08-09T17:49:51.100Z,22.91
2017-08-09T17:52:21.042Z,22.89
2017-08-09T17:54:50.132Z,22.80
2017-08-09T17:57:19.204Z,22.71
2017-08-09T17:59:48.284Z,22.67
2017-08-09T18:02:17.374Z,22.65
2017-08-09T18:04:47.613Z,22.61
2017-08-09T18:07:16.676Z,22.56
2017-08-09T18:09:46.498Z,22.47
2017-08-09T18:12:15.640Z,22.37
2017-08-09T18:14:44.685Z,22.28
2017-08-09T18:17:13.775Z,22.24
2017-08-09T18:19:43.612Z,22.18
2017-08-09T18:22:13.519Z,22.20
2017-08-09T18:24:42.620Z,22.15
2017-08-09T18:27:11.667Z,22.18
2017-08-09T18:29:40.733Z,22.13
2017-08-09T18:32:09.820Z,22.12
2017-08-09T18:34:38.873Z,22.07
2017-08-09T18:37:09.399Z,22.06
2017-08-09T18:39:39.248Z,22.02
2017-08-09T18:42:08.313Z,21.93
2017-08-09T18:44:38.124Z,21.93
2017-08-09T18:47:08.015Z,21.91
2017-08-09T18:49:37.052Z,21.83
2017-08-09T18:52:06.173Z,21.83
2017-08-09T18:54:35.244Z,21.75
2017-08-09T18:57:04.325Z,21.71
2017-08-09T18:59:34.149Z,21.63
2017-08-09T19:02:03.211Z,21.59
2017-08-09T19:04:32.292Z,21.59
2017-08-09T19:07:01.372Z,21.57
2017-08-09T19:09:30.510Z,21.52
2017-08-09T19:11:59.558Z,21.51
2017-08-09T19:14:28.620Z,21.48
2017-08-09T19:16:57.695Z,21.48
2017-08-09T19:19:27.515Z,21.47
2017-08-09T19:21:56.600Z,21.46
2017-08-09T19:24:26.445Z,21.46
2017-08-09T19:26:55.527Z,21.40
2017-08-09T19:29:24.594Z,21.41
2017-08-09T19:31:53.640Z,21.43
2017-08-09T19:34:22.697Z,21.46
2017-08-09T19:36:52.544Z,21.48
2017-08-09T19:39:21.594Z,21.46
2017-08-09T19:41:50.670Z,21.37
2017-08-09T19:44:19.712Z,21.32
2017-08-09T19:46:48.785Z,21.17
2017-08-09T19:49:17.913Z,21.19
2017-08-09T19:51:46.972Z,21.15
2017-08-09T19:54:16.110Z,21.12
2017-08-09T19:56:45.151Z,21.12
2017-08-09T19:59:14.240Z,21.12
2017-08-09T20:01:43.324Z,21.11
2017-08-09T20:04:12.379Z,21.04
2017-08-09T20:06:41.437Z,20.99
2017-08-09T20:09:10.524Z,20.95
2017-08-09T20:11:40.420Z,20.99
2017-08-09T20:14:09.553Z,20.98
2017-08-09T20:16:40.252Z,20.98
2017-08-09T20:19:09.314Z,20.93
2017-08-09T20:21:38.390Z,20.94
2017-08-09T20:24:08.272Z,20.91
2017-08-09T20:26:38.416Z,20.90
2017-08-09T20:29:07.448Z,20.86
2017-08-09T20:31:36.480Z,20.85
2017-08-09T20:34:05.540Z,20.78
2017-08-09T20:36:34.645Z,20.67
2017-08-09T20:39:03.857Z,20.59
2017-08-09T20:41:32.954Z,20.55
2017-08-09T20:44:02.016Z,20.51
2017-08-09T20:46:31.057Z,20.45
2017-08-09T20:49:00.131Z,20.34
2017-08-09T20:51:29.541Z,20.24
2017-08-09T20:53:58.613Z,20.18
2017-08-09T20:56:27.683Z,20.15
2017-08-09T20:58:57.001Z,20.10
2017-08-09T21:01:26.664Z,20.06
2017-08-09T21:03:55.707Z,20.02
2017-08-09T21:06:24.770Z,20.01
2017-08-09T21:08:53.827Z,20.02
2017-08-09T21:11:22.924Z,19.99
2017-08-09T21:13:51.987Z,19.97
2017-08-09T21:16:21.035Z,19.95
2017-08-09T21:18:51.137Z,19.90
2017-08-09T21:21:20.185Z,19.86
2017-08-09T21:23:49.244Z,19.79
2017-08-09T21:26:19.054Z,19.77
2017-08-09T21:28:49.014Z,19.70
2017-08-09T21:31:18.080Z,19.68
2017-08-09T21:33:47.901Z,19.66
2017-08-09T21:36:16.964Z,19.64
2017-08-09T21:38:46.903Z,19.57
2017-08-09T21:41:16.763Z,19.55
2017-08-09T21:43:45.827Z,19.51
2017-08-09T21:46:14.881Z,19.44
2017-08-09T21:48:43.926Z,19.42
2017-08-09T21:51:13.015Z,19.43
2017-08-09T21:53:42.082Z,19.44
2017-08-09T21:56:11.902Z,19.38
2017-08-09T21:58:41.720Z,19.34
2017-08-09T22:01:10.781Z,19.31
2017-08-09T22:03:39.823Z,19.27
2017-08-09T22:06:08.917Z,19.24
2017-08-09T22:08:37.981Z,19.24
2017-08-09T22:11:07.832Z,19.24
2017-08-09T22:13:36.890Z,19.17
2017-08-09T22:16:05.935Z,19.13
2017-08-09T22:18:35.021Z,19.08
2017-08-09T22:21:04.093Z,19.00
2017-08-09T22:23:33.147Z,18.93
2017-08-09T22:26:02.213Z,18.90
2017-08-09T22:28:31.253Z,18.84
2017-08-09T22:31:00.310Z,18.79
2017-08-09T22:33:29.401Z,18.71
2017-08-09T22:35:58.445Z,18.66
2017-08-09T22:38:27.504Z,18.58
2017-08-09T22:40:56.551Z,18.53
2017-08-09T22:43:25.635Z,18.46
2017-08-09T22:45:55.440Z,18.40
2017-08-09T22:48:25.284Z,18.40
2017-08-09T22:50:54.343Z,18.42
2017-08-09T22:53:23.423Z,18.38
2017-08-09T22:55:52.455Z,18.36
2017-08-09T22:58:21.516Z,18.34
2017-08-09T23:00:50.604Z,18.32
2017-08-09T23:03:19.645Z,18.27
2017-08-09T23:05:48.729Z,18.25
2017-08-09T23:08:18.536Z,18.23
2017-08-09T23:10:48.376Z,18.25
2017-08-09T23:13:17.423Z,18.25
2017-08-09T23:15:46.461Z,18.27
2017-08-09T23:18:15.530Z,18.27
2017-08-09T23:20:45.442Z,18.30
2017-08-09T23:23:15.282Z,18.35
2017-08-09T23:25:44.336Z,18.35
2017-08-09T23:28:13.410Z,18.39
2017-08-09T23:30:42.649Z,18.44
2017-08-09T23:33:12.488Z,18.49
2017-08-09T23:35:41.706Z,18.48
2017-08-09T23:38:10.798Z,18.46
2017-08-09T23:40:39.868Z,18.46
2017-08-09T23:43:08.947Z,18.47
2017-08-09T23:45:38.772Z,18.50
2017-08-09T23:48:08.642Z,18.53
2017-08-09T23:50:38.436Z,18.55
2017-08-09T23:53:07.506Z,18.58
2017-08-09T23:55:36.566Z,18.57
2017-08-09T23:58:06.408Z,18.55
